| time (UTC) | temp F | wind direction | speed knots | gust knots | rain 1hr in | rain 24hr in | rain mn in | humidity % | barometer mb |
| 20260510215756 | 72 | 345 | 4.3 | 12.2 | 0.00 | 0.00 | 0.00 | 71 | 1012.6 |
| 20260510214515 | 74 | 335 | 0.0 | 8.7 | 0.00 | 0.00 | 0.00 | 65 | 1012.5 |
| 20260510214256 | 74 | 355 | 4.3 | 12.2 | 0.00 | 0.00 | 0.00 | 65 | 1012.3 |
| 20260510212755 | 75 | 347 | 4.3 | 8.7 | 0.00 | 0.00 | 0.00 | 60 | 1011.8 |
| 20260510211255 | 78 | 323 | 3.5 | 8.7 | 0.00 | 0.00 | 0.00 | 57 | 1011.4 |
| 20260510205755 | 78 | 195 | 5.2 | 7.8 | 0.00 | 0.00 | 0.00 | 54 | 1011.2 |
| 20260510204520 | 79 | 155 | 4.3 | 8.7 | 0.00 | 0.00 | 0.00 | 52 | 1011.0 |
| 20260510204255 | 79 | 132 | 7.8 | 7.8 | 0.00 | 0.00 | 0.00 | 53 | 1010.8 |
| 20260510202755 | 79 | 44 | 0.9 | 9.6 | 0.00 | 0.00 | 0.00 | 53 | 1010.7 |
| 20260510201255 | 79 | 188 | 0.9 | 9.6 | 0.00 | 0.00 | 0.00 | 53 | 1010.9 |
| 20260510195755 | 80 | 169 | 0.9 | 7.8 | 0.00 | 0.00 | 0.00 | 51 | 1010.9 |
| 20260510194458 | 80 | 44 | 2.6 | 5.2 | 0.00 | 0.00 | 0.00 | 52 | 1011.2 |
| 20260510194254 | 80 | 84 | 0.9 | 7.8 | 0.00 | 0.00 | 0.00 | 51 | 1011.3 |
| 20260510192754 | 80 | 102 | 0.9 | 9.6 | 0.00 | 0.00 | 0.00 | 53 | 1011.7 |
| 20260510191254 | 80 | 97 | 0.9 | 9.6 | 0.00 | 0.00 | 0.00 | 52 | 1011.8 |
| 20260510185754 | 80 | 148 | 2.6 | 9.6 | 0.00 | 0.00 | 0.00 | 54 | 1011.8 |
| 20260510184514 | 81 | 130 | 3.5 | 7.8 | 0.00 | 0.00 | 0.00 | 50 | 1011.9 |
| 20260510184253 | 81 | 315 | 3.5 | 9.6 | 0.00 | 0.00 | 0.00 | 50 | 1011.9 |
| 20260510182753 | 82 | 102 | 6.1 | 7.0 | 0.00 | 0.00 | 0.00 | 44 | 1011.9 |
| 20260510181253 | 82 | 99 | 0.9 | 7.0 | 0.00 | 0.00 | 0.00 | 46 | 1012.1 |
| 20260510175753 | 81 | 130 | 2.6 | 7.0 | 0.00 | 0.00 | 0.00 | 45 | 1012.2 |
| 20260510174507 | 82 | 280 | 1.7 | 6.1 | 0.00 | 0.00 | 0.00 | 48 | 1012.2 |
| 20260510174253 | 82 | 328 | 3.5 | 7.0 | 0.00 | 0.00 | 0.00 | 48 | 1012.2 |
| 20260510172753 | 81 | 84 | 1.7 | 8.7 | 0.00 | 0.00 | 0.00 | 48 | 1012.2 |
| 20260510171252 | 80 | 299 | 0.9 | 8.7 | 0.00 | 0.00 | 0.00 | 52 | 1012.3 |
| 20260510165752 | 81 | 151 | 0.0 | 5.2 | 0.00 | 0.00 | 0.00 | 51 | 1012.5 |
| 20260510164510 | 80 | 177 | 3.5 | 6.1 | 0.00 | 0.00 | 0.00 | 51 | 1012.6 |
| 20260510164252 | 80 | 165 | 0.9 | 5.2 | 0.00 | 0.00 | 0.00 | 51 | 1012.6 |
| 20260510162752 | 80 | 149 | 0.0 | 7.0 | 0.00 | 0.00 | 0.00 | 54 | 1012.7 |
| 20260510161252 | 80 | 298 | 3.5 | 7.0 | 0.00 | 0.00 | 0.00 | 52 | 1012.8 |
| 20260510155751 | 79 | 246 | 0.0 | 7.0 | 0.00 | 0.00 | 0.00 | 57 | 1012.8 |
| 20260510154446 | 78 | 109 | 1.7 | 7.0 | 0.00 | 0.00 | 0.00 | 57 | 1012.9 |
| 20260510154251 | 78 | 208 | 0.0 | 7.0 | 0.00 | 0.00 | 0.00 | 59 | 1012.9 |
| 20260510152751 | 78 | 138 | 0.0 | 7.8 | 0.00 | 0.00 | 0.00 | 63 | 1012.9 |
| 20260510151251 | 76 | 129 | 1.7 | 7.8 | 0.00 | 0.00 | 0.00 | 62 | 1012.9 |
| 20260510145751 | 75 | 72 | 3.5 | 6.1 | 0.00 | 0.00 | 0.00 | 62 | 1012.7 |
| 20260510144447 | 75 | 275 | 0.0 | 6.1 | 0.00 | 0.00 | 0.00 | 64 | 1012.7 |
| 20260510144251 | 75 | 249 | 0.0 | 6.1 | 0.00 | 0.00 | 0.00 | 64 | 1012.5 |
| 20260510142750 | 74 | 151 | 4.3 | 4.3 | 0.00 | 0.00 | 0.00 | 64 | 1012.4 |
| 20260510141250 | 74 | 137 | 0.9 | 4.3 | 0.00 | 0.00 | 0.00 | 65 | 1012.4 |
| 20260510135750 | 72 | 119 | 0.0 | 3.5 | 0.00 | 0.00 | 0.00 | 69 | 1012.4 |
| 20260510134511 | 71 | 178 | 0.0 | 1.7 | 0.00 | 0.00 | 0.00 | 74 | 1012.4 |
| 20260510134250 | 71 | 123 | 0.0 | 3.5 | 0.00 | 0.00 | 0.00 | 73 | 1012.4 |
| 20260510132750 | 69 | 253 | 0.0 | 5.2 | 0.00 | 0.00 | 0.00 | 76 | 1012.5 |
| 20260510131249 | 67 | 125 | 0.0 | 5.2 | 0.00 | 0.00 | 0.00 | 81 | 1012.7 |
| 20260510125749 | 65 | 189 | 0.0 | 6.1 | 0.00 | 0.00 | 0.00 | 84 | 1012.9 |
| 20260510124449 | 63 | 27 | 3.5 | 5.2 | 0.00 | 0.00 | 0.00 | 85 | 1012.9 |
| 20260510124249 | 63 | 9 | 1.7 | 6.1 | 0.00 | 0.00 | 0.00 | 86 | 1012.9 |
| 20260510122749 | 61 | 11 | 1.7 | 7.0 | 0.00 | 0.00 | 0.00 | 89 | 1012.8 |
| 20260510115749 | 59 | 311 | 3.5 | 3.5 | 0.00 | 0.00 | 0.00 | 91 | 1012.6 |
| 20260510114445 | 58 | 5 | 1.7 | 4.3 | 0.00 | 0.00 | 0.00 | 92 | 1012.4 |
| 20260510114248 | 58 | 337 | 1.7 | 3.5 | 0.00 | 0.00 | 0.00 | 92 | 1012.3 |
| 20260510112748 | 58 | 337 | 0.0 | 0.9 | 0.00 | 0.00 | 0.00 | 94 | 1012.0 |
| 20260510111248 | 55 | 149 | 0.0 | 0.9 | 0.00 | 0.00 | 0.00 | 96 | 1011.7 |
| 20260510105748 | 53 | 228 | 0.0 | 0.9 | 0.00 | 0.00 | 0.00 | 96 | 1011.5 |
| 20260510104450 | 52 | 253 | 0.0 | 0.9 | 0.00 | 0.00 | 0.00 | 96 | 1011.3 |
| 20260510104248 | 52 | 253 | 0.0 | 0.9 | 0.00 | 0.00 | 0.00 | 96 | 1011.3 |
| 20260510102747 | 50 | 159 | 0.0 | 0.0 | 0.00 | 0.00 | 0.00 | 96 | 1011.2 |
| 20260510101247 | 50 | 167 | 0.0 | 0.0 | 0.00 | 0.00 | 0.00 | 95 | 1011.2 |
| 20260510095747 | 50 | 189 | 0.0 | 0.0 | 0.00 | 0.00 | 0.00 | 95 | 1011.0 |
| 20260510094456 | 50 | 189 | 0.0 | 0.0 | 0.00 | 0.00 | 0.00 | 95 | 1011.0 |
| 20260510094247 | 50 | 155 | 0.0 | 0.0 | 0.00 | 0.00 | 0.00 | 95 | 1011.0 |
| 20260510092747 | 51 | 123 | 0.0 | 0.0 | 0.00 | 0.00 | 0.00 | 95 | 1010.9 |
| 20260510091247 | 51 | 123 | 0.0 | 0.0 | 0.00 | 0.00 | 0.00 | 95 | 1010.9 |
| 20260510085746 | 51 | 123 | 0.0 | 0.0 | 0.00 | 0.00 | 0.00 | 95 | 1010.7 |
| 20260510084515 | 51 | 123 | 0.0 | 0.0 | 0.00 | 0.00 | 0.00 | 95 | 1010.6 |
| 20260510084246 | 51 | 123 | 0.0 | 0.0 | 0.00 | 0.00 | 0.00 | 95 | 1010.5 |
| 20260510082746 | 52 | 123 | 0.0 | 0.0 | 0.00 | 0.00 | 0.00 | 94 | 1010.2 |
| 20260510081246 | 52 | 123 | 0.0 | 0.0 | 0.00 | 0.00 | 0.00 | 94 | 1010.0 |
| 20260510075746 | 52 | 123 | 0.0 | 0.0 | 0.00 | 0.00 | 0.00 | 94 | 1009.9 |
| 20260510074445 | 53 | 123 | 0.0 | 0.0 | 0.00 | 0.00 | 0.00 | 94 | 1009.8 |
| 20260510074245 | 53 | 123 | 0.0 | 0.0 | 0.00 | 0.00 | 0.00 | 94 | 1009.8 |
| 20260510072745 | 53 | 123 | 0.0 | 0.0 | 0.00 | 0.00 | 0.00 | 94 | 1009.7 |
| 20260510071245 | 54 | 123 | 0.0 | 0.0 | 0.00 | 0.00 | 0.00 | 93 | 1009.6 |
| 20260510065745 | 54 | 123 | 0.0 | 0.0 | 0.00 | 0.00 | 0.00 | 93 | 1009.6 |
| 20260510064446 | 54 | 123 | 0.0 | 0.0 | 0.00 | 0.00 | 0.00 | 93 | 1009.6 |
| 20260510064245 | 55 | 123 | 0.0 | 0.0 | 0.00 | 0.00 | 0.00 | 93 | 1009.5 |
| 20260510062744 | 55 | 123 | 0.0 | 0.0 | 0.00 | 0.00 | 0.00 | 93 | 1009.5 |
| 20260510061244 | 55 | 123 | 0.0 | 0.0 | 0.00 | 0.00 | 0.00 | 93 | 1009.4 |
| 20260510055744 | 56 | 123 | 0.0 | 0.0 | 0.00 | 0.00 | 0.00 | 92 | 1009.4 |
| 20260510054444 | 56 | 123 | 0.0 | 0.0 | 0.00 | 0.00 | 0.00 | 92 | 1009.4 |
| 20260510054244 | 56 | 123 | 0.0 | 0.0 | 0.00 | 0.00 | 0.00 | 91 | 1009.4 |
| 20260510052744 | 56 | 123 | 0.0 | 0.0 | 0.00 | 0.00 | 0.00 | 91 | 1009.6 |
| 20260510051243 | 56 | 123 | 0.0 | 0.0 | 0.00 | 0.00 | 0.00 | 90 | 1009.6 |
| 20260510045743 | 57 | 123 | 0.0 | 0.0 | 0.00 | 0.00 | 0.00 | 89 | 1009.6 |
| 20260510044513 | 57 | 123 | 0.0 | 0.0 | 0.00 | 0.00 | 0.00 | 88 | 1009.7 |
| 20260510044243 | 57 | 123 | 0.0 | 0.0 | 0.00 | 0.00 | 0.00 | 88 | 1009.6 |
| 20260510042743 | 58 | 123 | 0.0 | 0.0 | 0.00 | 0.00 | 0.00 | 87 | 1009.7 |
| 20260510041243 | 59 | 123 | 0.0 | 0.0 | 0.00 | 0.00 | 0.00 | 86 | 1009.5 |
| 20260510035742 | 59 | 123 | 0.0 | 0.0 | 0.00 | 0.00 | 0.00 | 85 | 1009.4 |
| 20260510034513 | 60 | 123 | 0.0 | 0.0 | 0.00 | 0.00 | 0.00 | 84 | 1009.5 |
| 20260510034242 | 60 | 123 | 0.0 | 0.0 | 0.00 | 0.00 | 0.00 | 84 | 1009.4 |
| 20260510032742 | 61 | 123 | 0.0 | 0.0 | 0.00 | 0.00 | 0.00 | 82 | 1009.3 |
| 20260510031242 | 61 | 123 | 0.0 | 0.0 | 0.00 | 0.00 | 0.00 | 82 | 1009.2 |
| 20260510025742 | 62 | 123 | 0.0 | 0.0 | 0.00 | 0.00 | 0.00 | 81 | 1009.1 |
| 20260510024514 | 62 | 123 | 0.0 | 0.0 | 0.00 | 0.00 | 0.00 | 79 | 1009.1 |
| 20260510024241 | 62 | 123 | 0.0 | 0.0 | 0.00 | 0.00 | 0.00 | 79 | 1009.0 |
| 20260510022741 | 63 | 123 | 0.0 | 3.5 | 0.00 | 0.00 | 0.00 | 76 | 1009.0 |
| 20260510021241 | 64 | 123 | 0.0 | 3.5 | 0.00 | 0.00 | 0.00 | 75 | 1008.9 |
| 20260510015741 | 65 | 123 | 0.0 | 5.2 | 0.00 | 0.00 | 0.00 | 73 | 1008.7 |
| 20260510014515 | 65 | 123 | 0.0 | 3.5 | 0.00 | 0.00 | 0.00 | 72 | 1008.6 |
| 20260510014241 | 65 | 123 | 0.0 | 5.2 | 0.00 | 0.00 | 0.00 | 72 | 1008.6 |
| 20260510012741 | 66 | 140 | 0.9 | 4.3 | 0.00 | 0.00 | 0.00 | 71 | 1008.5 |
| 20260510011240 | 66 | 135 | 0.0 | 4.3 | 0.00 | 0.00 | 0.00 | 70 | 1008.3 |
| 20260510005740 | 66 | 136 | 0.0 | 8.7 | 0.00 | 0.00 | 0.00 | 70 | 1008.3 |
| 20260510004448 | 67 | 138 | 0.9 | 5.2 | 0.00 | 0.00 | 0.00 | 70 | 1008.3 |
| 20260510004240 | 67 | 123 | 0.0 | 8.7 | 0.00 | 0.00 | 0.00 | 70 | 1008.2 |
| 20260510002740 | 67 | 129 | 2.6 | 6.1 | 0.00 | 0.00 | 0.00 | 70 | 1008.1 |
| 20260510001240 | 67 | 150 | 1.7 | 6.1 | 0.00 | 0.00 | 0.00 | 71 | 1008.0 |
| 20260509235739 | 68 | 142 | 0.9 | 6.1 | 0.00 | 0.00 | 0.00 | 70 | 1007.8 |
| 20260509234522 | 69 | 136 | 2.6 | 5.2 | 0.00 | 0.00 | 0.00 | 69 | 1007.9 |
| 20260509234239 | 69 | 121 | 0.9 | 6.1 | 0.00 | 0.00 | 0.00 | 69 | 1007.8 |
| 20260509232739 | 70 | 144 | 0.9 | 9.6 | 0.00 | 0.00 | 0.00 | 67 | 1007.7 |
| 20260509231239 | 70 | 149 | 0.0 | 9.6 | 0.00 | 0.00 | 0.00 | 66 | 1007.5 |
| 20260509225739 | 72 | 140 | 1.7 | 8.7 | 0.00 | 0.00 | 0.00 | 63 | 1007.4 |
| 20260509224459 | 73 | 144 | 1.7 | 4.3 | 0.00 | 0.00 | 0.00 | 60 | 1007.5 |
| 20260509224239 | 73 | 144 | 0.0 | 8.7 | 0.00 | 0.00 | 0.00 | 60 | 1007.4 |
| 20260509222738 | 73 | 146 | 4.3 | 7.8 | 0.00 | 0.00 | 0.00 | 60 | 1007.6 |
| 20260509221238 | 73 | 140 | 5.2 | 7.8 | 0.00 | 0.00 | 0.00 | 59 | 1007.5 |